Time;durP1;ratioP1;P1;durP2;ratioP2;P2;SDS_P1;SDS_P2;PMS_P1;PMS_P2;Temp;Humidity;BMP_temperature;BMP_pressure;BME280_temperature;BME280_humidity;BME280_pressure;Samples;Min_cycle;Max_cycle;Signal;HPM_P1;HPM_P2
2021/12/21 00:02:26;;;;;;;139.30;33.90;;;;;;;-2.10;78.62;99193.84;1744268;82;27484;-63
2021/12/21 00:04:52;;;;;;;143.55;35.90;;;;;;;-2.03;78.73;99189.78;1744321;82;25761;-63
2021/12/21 00:07:19;;;;;;;35.80;12.65;;;;;;;-2.02;78.72;99198.96;1744331;82;25621;-64
2021/12/21 00:09:45;;;;;;;219.13;51.25;;;;;;;-2.04;78.72;99187.60;1744390;82;25882;-63
2021/12/21 00:12:15;;;;;;;176.97;45.63;;;;;;;-2.00;78.87;99188.51;1744578;82;25637;-62
2021/12/21 00:14:59;;;;;;;156.93;39.75;;;;;;;-1.96;78.76;99189.20;1744645;82;26800;-62
2021/12/21 00:17:43;;;;;;;146.68;35.38;;;;;;;-1.96;78.55;99190.55;1742480;82;25446;-62
2021/12/21 00:25:05;;;;;;;36.15;11.63;;;;;;;-1.95;78.71;99185.50;1744785;82;25583;-61
2021/12/21 00:27:31;;;;;;;83.45;21.87;;;;;;;-1.94;78.71;99189.82;1744431;82;27442;-63
2021/12/21 00:29:58;;;;;;;71.62;21.90;;;;;;;-1.96;78.33;99183.03;1743941;82;27175;-63
2021/12/21 00:32:24;;;;;;;154.50;39.40;;;;;;;-1.93;78.56;99189.31;1744545;82;25671;-62
2021/12/21 00:34:50;;;;;;;117.28;30.48;;;;;;;-1.95;78.41;99197.59;1743891;82;26413;-62
2021/12/21 00:37:18;;;;;;;221.72;54.35;;;;;;;-1.94;78.47;99193.02;1744539;82;25616;-62
2021/12/21 00:39:44;;;;;;;147.00;39.83;;;;;;;-1.94;78.24;99193.02;1743599;82;27477;-62
2021/12/21 00:42:11;;;;;;;162.62;42.70;;;;;;;-1.94;78.38;99199.73;1744418;82;25779;-62
2021/12/21 00:44:37;;;;;;;263.50;67.50;;;;;;;-1.94;78.50;99200.56;1743801;82;25618;-62
2021/12/21 00:47:04;;;;;;;192.03;49.23;;;;;;;-1.94;78.33;99203.25;1744648;82;25753;-62
2021/12/21 00:49:30;;;;;;;135.75;33.75;;;;;;;-1.91;78.70;99202.81;1744484;82;25777;-62
2021/12/21 00:51:57;;;;;;;132.78;34.83;;;;;;;-1.89;78.56;99199.91;1744513;82;27566;-64
2021/12/21 00:54:23;;;;;;;83.97;23.50;;;;;;;-1.89;78.54;99198.56;1744232;82;25626;-62
2021/12/21 00:56:49;;;;;;;73.72;20.32;;;;;;;-1.86;78.57;99199.48;1744831;82;25612;-62
2021/12/21 00:59:16;;;;;;;109.70;27.62;;;;;;;-1.82;78.58;99203.88;1743776;82;25891;-65
2021/12/21 01:01:42;;;;;;;138.68;35.55;;;;;;;-1.81;78.47;99202.86;1744494;82;25703;-64
2021/12/21 01:04:20;;;;;;;75.05;21.75;;;;;;;-1.81;78.42;99205.54;1744583;82;27654;-64
2021/12/21 01:06:43;;;;;;;145.83;38.90;;;;;;;-1.83;78.49;99215.67;1742906;82;25446;-64
2021/12/21 01:09:26;;;;;;;88.60;24.77;;;;;;;-1.86;78.66;99208.88;1743530;82;25776;-62
2021/12/21 01:11:46;;;;;;;35.95;10.63;;;;;;;-1.84;78.71;99212.69;1741324;82;25599;-62
2021/12/21 01:19:42;;;;;;;179.85;50.33;;;;;;;-1.83;78.87;99212.98;1743452;82;25655;-61
2021/12/21 01:24:49;;;;;;;125.33;33.38;;;;;;;-1.84;78.85;99204.63;1744784;82;25671;-62
2021/12/21 01:30:04;;;;;;;84.07;29.07;;;;;;;-1.82;78.87;99210.59;1744151;82;27512;-63
2021/12/21 01:35:02;;;;;;;140.97;40.85;;;;;;;-1.81;78.96;99202.31;1744831;82;25697;-65
2021/12/21 01:37:29;;;;;;;185.95;45.70;;;;;;;-1.78;78.77;99201.08;1742771;81;25608;-65
2021/12/21 01:42:38;;;;;;;47.48;18.20;;;;;;;-1.82;78.67;99203.88;1744587;82;25647;-63
2021/12/21 01:50:23;;;;;;;128.12;38.17;;;;;;;-1.75;79.04;99197.95;1744242;82;25564;-64
2021/12/21 01:52:50;;;;;;;90.45;30.12;;;;;;;-1.75;78.84;99197.95;1744870;82;25458;-62
2021/12/21 01:55:16;;;;;;;203.40;55.25;;;;;;;-1.75;78.74;99205.18;1743735;82;27475;-63
2021/12/21 01:57:43;;;;;;;104.53;31.37;;;;;;;-1.74;78.76;99202.78;1744354;82;25791;-63
2021/12/21 02:00:11;;;;;;;146.18;41.00;;;;;;;-1.74;78.95;99199.59;1744443;82;25642;-62
2021/12/21 02:02:37;;;;;;;117.57;37.35;;;;;;;-1.70;78.80;99194.61;1744530;82;25719;-62
2021/12/21 02:05:06;;;;;;;97.60;29.85;;;;;;;-1.72;78.70;99198.86;1744361;82;25612;-63
2021/12/21 02:07:33;;;;;;;150.50;45.08;;;;;;;-1.70;78.74;99191.92;1743869;82;27451;-62
2021/12/21 02:10:00;;;;;;;132.12;40.23;;;;;;;-1.73;78.63;99190.47;1744092;82;25430;-62
2021/12/21 02:12:26;;;;;;;129.20;42.50;;;;;;;-1.75;78.56;99192.58;1744214;82;25643;-62
2021/12/21 02:14:59;;;;;;;84.22;30.95;;;;;;;-1.73;78.72;99193.70;1744587;82;25723;-63
2021/12/21 02:22:55;;;;;;;63.55;25.30;;;;;;;-1.75;78.73;99188.55;1743539;82;25427;-65
2021/12/21 02:27:59;;;;;;;85.15;39.83;;;;;;;-1.75;78.95;99177.80;1741454;82;25672;-65
2021/12/21 02:30:24;;;;;;;44.90;19.82;;;;;;;-1.75;78.97;99181.00;1725762;82;25592;-66
2021/12/21 02:32:51;;;;;;;70.78;31.68;;;;;;;-1.76;79.01;99190.91;1725946;82;27439;-64
2021/12/21 02:35:18;;;;;;;32.90;14.13;;;;;;;-1.76;79.11;99192.25;1725663;83;25657;-65
2021/12/21 02:37:45;;;;;;;29.60;15.20;;;;;;;-1.78;79.12;99193.81;1726081;82;25732;-66
2021/12/21 02:40:12;;;;;;;30.95;15.10;;;;;;;-1.74;79.35;99188.00;1726383;82;26710;-64
2021/12/21 02:42:39;;;;;;;102.62;42.50;;;;;;;-1.73;79.32;99182.95;1726575;82;25435;-64
2021/12/21 02:45:07;;;;;;;34.08;14.05;;;;;;;-1.72;79.37;99182.73;1726141;82;27479;-62
2021/12/21 02:47:33;;;;;;;45.33;19.52;;;;;;;-1.70;79.37;99183.86;1726163;82;25616;-63
2021/12/21 02:50:00;;;;;;;30.25;14.07;;;;;;;-1.70;79.47;99181.97;1725967;82;25585;-64
2021/12/21 02:52:26;;;;;;;47.23;20.00;;;;;;;-1.72;79.55;99177.87;1726259;82;25703;-62
2021/12/21 02:54:53;;;;;;;31.25;15.00;;;;;;;-1.70;79.77;99177.14;1726157;82;25422;-62
2021/12/21 02:57:19;;;;;;;36.53;16.17;;;;;;;-1.67;79.84;99172.13;1726001;82;27503;-64
2021/12/21 02:59:46;;;;;;;31.35;13.18;;;;;;;-1.64;79.99;99175.72;1726123;83;25696;-64
2021/12/21 03:02:12;;;;;;;22.15;10.53;;;;;;;-1.64;79.89;99172.23;1725467;82;25494;-62
2021/12/21 03:04:44;;;;;;;21.07;10.78;;;;;;;-1.66;79.94;99169.77;1726133;82;25741;-62
2021/12/21 03:09:58;;;;;;;26.87;13.50;;;;;;;-1.66;80.10;99171.62;1725995;83;25721;-62
2021/12/21 03:14:52;;;;;;;28.25;14.20;;;;;;;-1.66;80.15;99157.67;1726135;83;25652;-63
2021/12/21 03:17:20;;;;;;;22.10;10.18;;;;;;;-1.62;80.30;99159.92;1726795;82;25774;-63
2021/12/21 03:19:47;;;;;;;34.15;16.25;;;;;;;-1.62;80.31;99170.66;1726328;82;25407;-62
2021/12/21 03:22:14;;;;;;;38.02;16.17;;;;;;;-1.65;80.39;99161.98;1726660;82;27574;-62
2021/12/21 03:24:44;;;;;;;25.02;12.58;;;;;;;-1.65;80.39;99164.68;1726458;82;25475;-63
2021/12/21 03:27:11;;;;;;;52.43;23.75;;;;;;;-1.66;80.51;99168.93;1726432;83;25423;-62
2021/12/21 03:29:37;;;;;;;37.05;16.05;;;;;;;-1.65;80.62;99171.91;1738249;82;25721;-63
2021/12/21 03:32:05;;;;;;;32.55;15.55;;;;;;;-1.64;80.66;99174.92;1742976;82;25437;-62
2021/12/21 03:34:31;;;;;;;69.67;28.85;;;;;;;-1.65;80.79;99170.56;1741219;82;27550;-62
2021/12/21 03:36:58;;;;;;;35.68;15.78;;;;;;;-1.60;80.95;99176.63;1742899;80;25857;-63
2021/12/21 03:39:24;;;;;;;38.02;16.48;;;;;;;-1.61;81.00;99170.95;1761827;80;25605;-66
2021/12/21 03:41:56;;;;;;;27.22;13.48;;;;;;;-1.57;81.08;99170.81;1755976;79;25813;-63
2021/12/21 03:44:24;;;;;;;44.42;21.48;;;;;;;-1.57;81.07;99173.50;1757430;80;25633;-66
2021/12/21 03:46:54;;;;;;;31.15;13.78;;;;;;;-1.58;81.19;99178.04;1753772;80;27383;-65
2021/12/21 03:52:04;;;;;;;54.27;23.40;;;;;;;-1.56;81.48;99171.93;1757818;80;25713;-65
2021/12/21 03:54:31;;;;;;;34.78;15.10;;;;;;;-1.56;81.65;99175.13;1755169;80;25785;-65
2021/12/21 03:56:57;;;;;;;47.75;21.40;;;;;;;-1.55;81.72;99176.80;1752570;80;25497;-62
2021/12/21 03:59:24;;;;;;;44.65;19.98;;;;;;;-1.54;81.70;99176.58;1754617;80;27337;-66
2021/12/21 04:01:51;;;;;;;42.80;16.93;;;;;;;-1.50;81.85;99176.94;1755304;80;27052;-65
2021/12/21 04:04:18;;;;;;;19.52;10.20;;;;;;;-1.46;81.77;99178.67;1753697;80;25404;-66
2021/12/21 04:06:46;;;;;;;38.30;16.90;;;;;;;-1.47;81.69;99173.81;1755137;80;26551;-62
2021/12/21 04:09:13;;;;;;;33.95;14.53;;;;;;;-1.46;81.80;99175.98;1755636;80;25678;-63
2021/12/21 04:11:40;;;;;;;21.35;10.58;;;;;;;-1.45;81.86;99178.97;1751763;80;27399;-64
2021/12/21 04:14:07;;;;;;;38.13;16.65;;;;;;;-1.45;81.85;99179.80;1757071;80;25491;-63
2021/12/21 04:16:34;;;;;;;19.42;9.98;;;;;;;-1.44;81.84;99184.66;1754069;80;25405;-63
2021/12/21 04:19:00;;;;;;;18.60;9.30;;;;;;;-1.44;81.79;99182.78;1757786;80;25843;-63
2021/12/21 04:21:27;;;;;;;31.23;15.85;;;;;;;-1.42;81.79;99184.73;1757912;80;25425;-63
2021/12/21 04:23:53;;;;;;;20.80;10.88;;;;;;;-1.44;81.90;99188.16;1753652;80;27415;-63
2021/12/21 04:26:20;;;;;;;27.02;13.72;;;;;;;-1.43;81.87;99184.44;1752295;80;25720;-63
2021/12/21 04:28:47;;;;;;;28.60;13.38;;;;;;;-1.43;81.74;99189.82;1758676;80;25476;-62
2021/12/21 04:31:14;;;;;;;42.05;16.10;;;;;;;-1.45;81.65;99187.86;1779872;80;25941;-63
2021/12/21 04:33:42;;;;;;;13.28;7.12;;;;;;;-1.43;81.64;99188.98;1779384;80;25747;-62
2021/12/21 04:36:11;;;;;;;17.87;7.83;;;;;;;-1.44;81.36;99188.70;1777300;80;27445;-63
2021/12/21 04:38:42;;;;;;;18.32;9.15;;;;;;;-1.48;81.37;99184.27;1779634;80;25495;-62
2021/12/21 04:41:17;;;;;;;33.58;18.07;;;;;;;-1.45;81.37;99195.09;1779033;80;25680;-63
2021/12/21 04:43:43;;;;;;;18.17;9.13;;;;;;;-1.48;81.30;99190.16;1723598;81;25477;-63
2021/12/21 04:46:11;;;;;;;14.90;7.25;;;;;;;-1.45;81.28;99189.72;1722711;82;25726;-63
2021/12/21 04:48:38;;;;;;;13.40;6.90;;;;;;;-1.44;81.16;99192.73;1689645;83;27399;-63
2021/12/21 04:51:05;;;;;;;10.90;6.00;;;;;;;-1.47;81.05;99196.66;1740698;82;25642;-63
2021/12/21 04:53:33;;;;;;;15.20;6.72;;;;;;;-1.49;81.03;99193.90;1742124;82;25733;-61
2021/12/21 04:56:01;;;;;;;17.10;9.78;;;;;;;-1.47;81.18;99189.14;1742416;82;25880;-62
2021/12/21 04:58:27;;;;;;;14.30;6.83;;;;;;;-1.47;81.03;99189.94;1742807;82;25609;-63
2021/12/21 05:00:53;;;;;;;11.50;5.22;;;;;;;-1.47;80.99;99185.10;1742221;82;27620;-63
2021/12/21 05:03:19;;;;;;;17.07;7.78;;;;;;;-1.48;80.80;99193.68;1742139;82;25736;-64
2021/12/21 05:05:46;;;;;;;15.78;7.30;;;;;;;-1.46;80.96;99199.67;1742371;82;25669;-62
2021/12/21 05:08:20;;;;;;;18.10;7.45;;;;;;;-1.49;80.87;99192.05;1741940;82;25875;-63
2021/12/21 05:10:49;;;;;;;12.25;6.25;;;;;;;-1.49;80.96;99193.90;1740127;82;25610;-63
2021/12/21 05:13:18;;;;;;;12.80;6.25;;;;;;;-1.50;80.89;99198.44;1742146;82;26702;-66
2021/12/21 05:15:45;;;;;;;14.07;6.05;;;;;;;-1.48;80.89;99193.68;1742130;82;25879;-64
2021/12/21 05:18:13;;;;;;;12.75;6.65;;;;;;;-1.45;80.78;99193.23;1742599;82;25742;-63
2021/12/21 05:20:41;;;;;;;11.25;5.80;;;;;;;-1.44;81.02;99194.08;1742513;82;25909;-66
2021/12/21 05:23:07;;;;;;;15.08;6.70;;;;;;;-1.46;81.19;99198.33;1741886;82;25749;-65
2021/12/21 05:25:34;;;;;;;9.43;4.40;;;;;;;-1.48;81.50;99206.29;1741678;82;28112;-64
2021/12/21 05:28:00;;;;;;;10.00;5.37;;;;;;;-1.56;82.03;99204.19;1742360;82;25749;-63
2021/12/21 05:30:28;;;;;;;7.22;4.50;;;;;;;-1.57;81.96;99206.58;1719800;82;25694;-65
2021/12/21 05:32:56;;;;;;;12.55;5.47;;;;;;;-1.61;82.09;99208.59;1715077;83;25695;-65
2021/12/21 05:35:25;;;;;;;8.53;4.62;;;;;;;-1.61;82.09;99211.27;1764176;80;25673;-65
2021/12/21 05:37:57;;;;;;;10.28;5.20;;;;;;;-1.62;82.20;99210.44;1763297;80;28236;-66
2021/12/21 05:40:21;;;;;;;21.65;8.25;;;;;;;-1.60;82.01;99215.59;1763287;80;25725;-65
2021/12/21 05:42:49;;;;;;;16.70;6.75;;;;;;;-1.59;82.10;99216.72;1763951;80;25574;-66
2021/12/21 05:45:17;;;;;;;21.30;7.80;;;;;;;-1.55;82.01;99218.46;1764496;80;25902;-65
2021/12/21 05:47:44;;;;;;;13.72;6.37;;;;;;;-1.52;81.96;99215.34;1763652;80;25663;-62
2021/12/21 05:50:16;;;;;;;15.32;5.65;;;;;;;-1.54;81.76;99218.24;1763603;80;27466;-62
2021/12/21 05:52:43;;;;;;;9.25;4.55;;;;;;;-1.53;81.85;99216.36;1763845;80;25662;-63
2021/12/21 05:55:12;;;;;;;14.40;6.65;;;;;;;-1.57;81.58;99214.65;1763926;80;25781;-63
2021/12/21 05:57:40;;;;;;;11.88;5.72;;;;;;;-1.60;81.72;99211.05;1764170;80;26347;-62
2021/12/21 06:00:12;;;;;;;15.68;6.92;;;;;;;-1.58;81.69;99218.36;1763996;80;25589;-64
2021/12/21 06:02:38;;;;;;;14.65;5.85;;;;;;;-1.56;81.64;99210.08;1764077;80;27434;-62
2021/12/21 06:05:06;;;;;;;12.23;5.42;;;;;;;-1.53;81.55;99220.39;1763549;80;25682;-61
2021/12/21 06:07:33;;;;;;;15.98;7.83;;;;;;;-1.55;81.49;99220.61;1764321;80;25708;-62
2021/12/21 06:10:09;;;;;;;12.78;5.22;;;;;;;-1.53;81.54;99224.42;1763864;80;26134;-62
2021/12/21 06:12:44;;;;;;;11.38;6.05;;;;;;;-1.58;81.52;99222.93;1762968;80;25401;-63
2021/12/21 06:25:51;;;;;;;17.20;7.95;;;;;;;-1.57;81.37;99229.94;1757524;80;25669;-62
2021/12/21 06:28:12;;;;;;;17.82;7.53;;;;;;;-1.55;81.68;99237.28;1764153;80;26012;-64
2021/12/21 06:30:41;;;;;;;12.35;6.67;;;;;;;-1.51;81.59;99239.82;1759592;80;25700;-65
2021/12/21 06:33:08;;;;;;;15.70;7.47;;;;;;;-1.48;81.59;99246.10;1757561;81;25661;-63
2021/12/21 06:35:37;;;;;;;20.27;8.38;;;;;;;-1.47;81.51;99249.08;1757198;81;25768;-66
2021/12/21 06:38:04;;;;;;;20.35;7.70;;;;;;;-1.48;81.54;99250.64;1757361;81;25635;-65
2021/12/21 06:40:32;;;;;;;17.60;8.00;;;;;;;-1.49;81.45;99247.16;1757467;81;28197;-64
2021/12/21 06:43:01;;;;;;;19.10;6.45;;;;;;;-1.47;81.59;99257.15;1757256;81;25673;-65
2021/12/21 06:45:46;;;;;;;27.02;8.75;;;;;;;-1.48;81.33;99256.86;1757174;81;25675;-65
2021/12/21 06:53:31;;;;;;;17.27;7.58;;;;;;;-1.45;81.67;99252.39;1757369;81;25665;-65
2021/12/21 06:55:57;;;;;;;23.10;8.53;;;;;;;-1.43;81.47;99250.31;1757138;81;25476;-64
2021/12/21 06:58:24;;;;;;;55.55;21.50;;;;;;;-1.43;81.41;99253.52;1757019;81;25497;-65
2021/12/21 07:00:53;;;;;;;37.75;17.12;;;;;;;-1.44;81.47;99256.71;1757357;81;25754;-65
2021/12/21 07:03:20;;;;;;;40.65;14.45;;;;;;;-1.43;81.64;99258.89;1757515;81;25593;-66
2021/12/21 07:05:49;;;;;;;37.35;13.22;;;;;;;-1.40;81.62;99254.42;1757382;81;28143;-64
2021/12/21 07:08:21;;;;;;;28.57;11.60;;;;;;;-1.39;81.62;99258.23;1757703;81;25736;-63
2021/12/21 07:10:54;;;;;;;24.92;10.78;;;;;;;-1.37;81.42;99262.05;1756651;81;25481;-63
2021/12/21 07:18:44;;;;;;;17.75;8.28;;;;;;;-1.39;81.58;99284.28;1709296;83;25606;-62
2021/12/21 07:21:10;;;;;;;21.27;8.65;;;;;;;-1.40;81.54;99277.27;1709037;83;25757;-62
2021/12/21 07:23:37;;;;;;;21.90;8.30;;;;;;;-1.40;81.47;99278.61;1757588;81;25756;-62
2021/12/21 07:26:04;;;;;;;17.87;8.55;;;;;;;-1.40;81.50;99277.27;1757731;81;25903;-62
2021/12/21 07:28:31;;;;;;;26.35;10.50;;;;;;;-1.40;81.44;99288.02;1757349;81;25722;-63
2021/12/21 07:30:57;;;;;;;28.60;10.65;;;;;;;-1.41;81.46;99283.16;1736881;82;27427;-62
2021/12/21 07:33:25;;;;;;;24.55;10.20;;;;;;;-1.40;81.39;99283.48;1780018;80;25756;-64
2021/12/21 07:35:51;;;;;;;24.98;11.28;;;;;;;-1.40;81.38;99290.20;1716691;82;25678;-62
2021/12/21 07:38:19;;;;;;;22.75;11.05;;;;;;;-1.37;81.41;99285.41;1779478;80;25902;-62
2021/12/21 07:40:46;;;;;;;20.85;10.60;;;;;;;-1.35;81.52;99286.86;1779429;80;25657;-64
2021/12/21 07:43:13;;;;;;;29.27;14.30;;;;;;;-1.30;81.66;99288.86;1715647;82;27408;-63
2021/12/21 07:45:40;;;;;;;27.73;12.47;;;;;;;-1.23;81.56;99286.13;1779998;80;25404;-62
2021/12/21 07:48:09;;;;;;;23.65;9.45;;;;;;;-1.22;81.46;99286.42;1780041;80;25471;-64
2021/12/21 07:50:37;;;;;;;23.65;10.18;;;;;;;-1.18;81.43;99287.64;1780222;80;25717;-63
2021/12/21 07:53:05;;;;;;;22.32;9.15;;;;;;;-1.14;81.26;99288.84;1780109;80;25434;-65
2021/12/21 07:55:32;;;;;;;22.17;9.73;;;;;;;-1.12;80.95;99289.97;1779481;80;27465;-66
2021/12/21 07:58:00;;;;;;;13.72;7.67;;;;;;;-1.07;81.20;99285.56;1780095;80;25582;-66
2021/12/21 08:00:28;;;;;;;15.68;8.30;;;;;;;-1.06;80.75;99280.47;1779626;80;25620;-63
2021/12/21 08:02:57;;;;;;;13.85;7.47;;;;;;;-1.11;80.53;99290.26;1780173;80;25857;-65
2021/12/21 08:05:30;;;;;;;15.20;7.33;;;;;;;-1.10;80.65;99300.00;1780049;80;25407;-64
2021/12/21 08:07:58;;;;;;;14.03;7.42;;;;;;;-1.06;80.95;99291.23;1779677;80;26976;-66
2021/12/21 08:10:30;;;;;;;16.50;7.75;;;;;;;-0.99;80.76;99295.22;1779307;80;25467;-65
2021/12/21 08:12:57;;;;;;;18.67;9.13;;;;;;;-0.97;80.32;99290.97;1779922;80;25620;-66
2021/12/21 08:15:25;;;;;;;14.70;8.20;;;;;;;-0.93;80.19;99291.64;1776757;80;25742;-63
2021/12/21 08:17:52;;;;;;;23.42;10.05;;;;;;;-0.83;80.47;99288.45;1779268;80;25664;-66
2021/12/21 08:20:20;;;;;;;20.40;9.35;;;;;;;-0.70;80.57;99293.38;1779505;80;28011;-66
2021/12/21 08:22:46;;;;;;;21.85;9.23;;;;;;;-0.62;79.95;99292.27;1780077;80;25597;-62
2021/12/21 08:25:13;;;;;;;20.82;8.88;;;;;;;-0.60;79.95;99283.45;1780090;80;25700;-63
2021/12/21 08:27:39;;;;;;;26.45;12.10;;;;;;;-0.59;79.29;99287.27;1779850;80;25852;-64
2021/12/21 08:30:27;;;;;;;136.52;41.95;;;;;;;-0.55;79.86;99297.07;1773665;80;25696;-62
2021/12/21 08:32:57;;;;;;;84.55;29.15;;;;;;;-0.52;79.72;99306.02;1719338;83;27003;-62
2021/12/21 08:35:25;;;;;;;32.00;12.03;;;;;;;-0.47;79.67;99312.08;1703430;83;25698;-64
2021/12/21 08:37:59;;;;;;;36.73;15.32;;;;;;;-0.43;79.76;99314.64;1703703;84;25824;-65
2021/12/21 08:40:23;;;;;;;50.70;17.67;;;;;;;-0.42;79.74;99326.54;1703309;83;25765;-63
2021/12/21 08:42:51;;;;;;;24.70;10.90;;;;;;;-0.40;79.38;99324.97;1703274;84;25457;-63
2021/12/21 08:45:19;;;;;;;17.42;7.20;;;;;;;-0.43;78.73;99319.48;1703359;84;27460;-63
2021/12/21 08:47:46;;;;;;;16.55;7.22;;;;;;;-0.47;78.64;99324.20;1703601;83;25795;-64
2021/12/21 08:50:14;;;;;;;17.98;8.38;;;;;;;-0.52;78.42;99320.83;1702970;84;25595;-65
2021/12/21 08:52:41;;;;;;;19.57;7.65;;;;;;;-0.50;79.07;99322.78;1703552;84;25700;-65
2021/12/21 08:55:11;;;;;;;15.25;5.87;;;;;;;-0.49;78.32;99326.31;1703576;84;25428;-65
2021/12/21 08:57:38;;;;;;;16.67;6.53;;;;;;;-0.49;78.28;99331.16;1703792;84;27449;-66
2021/12/21 09:00:09;;;;;;;17.62;8.93;;;;;;;-0.49;78.42;99331.16;1703391;84;25436;-65
2021/12/21 09:02:37;;;;;;;26.90;11.80;;;;;;;-0.48;78.33;99336.02;1703733;83;25708;-63
2021/12/21 09:05:11;;;;;;;14.25;7.10;;;;;;;-0.49;77.80;99329.80;1702870;84;25740;-63
2021/12/21 09:07:36;;;;;;;14.58;6.60;;;;;;;-0.46;78.34;99337.98;1703015;84;25684;-63
2021/12/21 09:10:05;;;;;;;17.73;8.03;;;;;;;-0.43;77.68;99340.23;1703578;84;27495;-64
2021/12/21 09:12:32;;;;;;;11.22;6.37;;;;;;;-0.39;78.33;99337.37;1703829;84;25812;-63
2021/12/21 09:14:59;;;;;;;15.45;7.50;;;;;;;-0.32;78.03;99340.00;1703207;83;25444;-63
2021/12/21 09:17:26;;;;;;;16.35;6.78;;;;;;;-0.29;78.44;99340.36;1702954;84;25911;-63
2021/12/21 09:19:53;;;;;;;13.98;7.33;;;;;;;-0.22;77.46;99332.73;1703317;84;25673;-63
2021/12/21 09:22:20;;;;;;;13.22;6.85;;;;;;;-0.16;77.99;99331.83;1703518;83;27452;-63
2021/12/21 09:24:47;;;;;;;26.40;10.53;;;;;;;-0.09;77.87;99349.27;1702894;83;25599;-63
2021/12/21 09:27:15;;;;;;;59.98;16.90;;;;;;;-0.08;76.92;99347.70;1703607;84;25664;-63
2021/12/21 09:29:44;;;;;;;73.50;21.48;;;;;;;-0.05;76.81;99338.33;1703092;84;25755;-63
2021/12/21 09:32:13;;;;;;;19.55;7.87;;;;;;;0.04;77.21;99341.53;1707774;83;25789;-63
2021/12/21 09:34:40;;;;;;;13.13;6.97;;;;;;;0.09;76.91;99347.88;1692785;84;25960;-62
2021/12/21 09:37:14;;;;;;;17.15;8.35;;;;;;;0.12;76.24;99341.23;1707619;84;25785;-63
2021/12/21 09:39:38;;;;;;;13.17;7.13;;;;;;;0.12;76.52;99342.58;1737008;82;25617;-64
2021/12/21 09:42:06;;;;;;;15.38;8.43;;;;;;;0.17;76.30;99350.78;1736590;82;25837;-65
2021/12/21 09:44:34;;;;;;;21.00;10.53;;;;;;;0.23;76.66;99336.94;1736865;82;25424;-63
2021/12/21 09:47:01;;;;;;;18.60;9.40;;;;;;;0.26;75.43;99337.84;1736985;82;27462;-62
2021/12/21 09:49:28;;;;;;;17.95;8.70;;;;;;;0.25;75.28;99346.95;1736803;82;25814;-63
2021/12/21 09:51:55;;;;;;;30.82;11.97;;;;;;;0.34;76.08;99338.84;1736818;82;25688;-62
2021/12/21 09:54:23;;;;;;;31.93;12.28;;;;;;;0.46;76.18;99342.12;1736809;82;25740;-63
2021/12/21 09:56:50;;;;;;;16.90;7.92;;;;;;;0.54;75.58;99337.73;1713946;82;25435;-64
2021/12/21 09:59:17;;;;;;;28.55;11.18;;;;;;;0.62;75.46;99338.76;1736782;82;27475;-63
2021/12/21 10:01:44;;;;;;;26.62;11.08;;;;;;;0.70;74.84;99338.13;1736579;82;25697;-64
2021/12/21 10:04:12;;;;;;;39.38;16.37;;;;;;;0.68;73.71;99332.13;1736687;82;25657;-64
2021/12/21 10:06:48;;;;;;;41.35;18.60;;;;;;;0.62;74.37;99331.19;1736785;82;25741;-63
2021/12/21 10:09:21;;;;;;;21.82;10.85;;;;;;;0.53;74.07;99334.75;1737150;82;25600;-64
2021/12/21 10:11:50;;;;;;;4.85;2.90;;;;;;;0.21;72.68;99338.52;1714339;82;27288;-64
2021/12/21 10:14:19;;;;;;;15.30;8.93;;;;;;;-0.28;74.05;99345.23;1736997;82;25604;-63
2021/12/21 10:16:46;;;;;;;9.55;5.45;;;;;;;-0.60;74.82;99339.47;1736824;82;25621;-64
2021/12/21 10:19:24;;;;;;;34.58;10.30;;;;;;;-0.74;74.85;99338.77;1736757;82;25700;-64
2021/12/21 10:21:51;;;;;;;10.18;4.85;;;;;;;-0.90;75.27;99340.15;1737006;82;25428;-63
2021/12/21 10:24:28;;;;;;;20.15;9.13;;;;;;;-0.91;76.11;99333.97;1736568;82;27389;-63
2021/12/21 10:27:07;;;;;;;17.90;10.03;;;;;;;-0.78;76.27;99333.52;1736361;82;25642;-63
2021/12/21 10:29:46;;;;;;;11.57;4.78;;;;;;;-0.71;73.78;99338.84;1736963;82;25710;-64
2021/12/21 10:32:27;;;;;;;11.73;6.67;;;;;;;-0.88;72.76;99338.08;1736823;82;26477;-63
2021/12/21 10:35:05;;;;;;;39.50;19.23;;;;;;;-1.05;72.45;99329.73;1736836;82;25645;-63
2021/12/21 10:37:37;;;;;;;46.83;24.55;;;;;;;-0.98;73.51;99341.80;1736826;82;27561;-63
2021/12/21 10:40:09;;;;;;;82.50;39.98;;;;;;;-0.89;74.34;99336.44;1736784;82;25472;-64
2021/12/21 10:42:49;;;;;;;54.73;25.60;;;;;;;-0.71;73.97;99334.81;1736971;82;25748;-65
2021/12/21 10:45:18;;;;;;;19.77;10.05;;;;;;;-0.30;73.98;99336.03;1736896;82;25760;-64
2021/12/21 10:47:46;;;;;;;16.93;7.60;;;;;;;0.26;72.16;99329.75;1736979;82;25467;-64
2021/12/21 10:50:14;;;;;;;14.83;7.75;;;;;;;0.57;68.63;99329.17;1736673;82;27434;-64
2021/12/21 10:52:51;;;;;;;19.95;8.65;;;;;;;0.93;72.00;99325.72;1736840;82;25763;-63
2021/12/21 10:55:31;;;;;;;19.60;8.83;;;;;;;1.73;71.68;99326.68;1736798;82;25590;-64
2021/12/21 10:58:13;;;;;;;12.58;5.80;;;;;;;2.21;66.98;99322.45;1736783;82;25704;-64
2021/12/21 11:00:44;;;;;;;13.43;6.25;;;;;;;2.53;66.25;99325.20;1735845;82;25673;-65
2021/12/21 11:03:16;;;;;;;22.55;11.15;;;;;;;2.83;67.16;99326.25;1736529;82;27675;-65
2021/12/21 11:05:42;;;;;;;114.12;43.65;;;;;;;3.08;65.82;99315.52;1736509;82;25580;-62
2021/12/21 11:08:16;;;;;;;129.27;51.70;;;;;;;3.39;66.76;99320.56;1736777;82;25585;-62
2021/12/21 11:10:38;;;;;;;335.20;124.78;;;;;;;3.75;66.27;99314.81;1735565;82;25436;-63
2021/12/21 11:13:09;;;;;;;70.12;27.73;;;;;;;4.00;66.12;99322.42;1736809;82;25660;-64
2021/12/21 11:15:53;;;;;;;15.38;8.48;;;;;;;4.22;65.63;99319.39;1734958;82;28358;-63
2021/12/21 11:18:21;;;;;;;76.53;33.30;;;;;;;4.39;64.13;99313.88;1736174;82;25440;-63
2021/12/21 11:20:52;;;;;;;20.52;10.68;;;;;;;4.77;64.14;99307.16;1736959;82;25670;-61
2021/12/21 11:23:21;;;;;;;;;;;;;;;5.11;62.67;99306.05;1739058;82;25666;-62
2021/12/21 11:25:53;;;;;;;214.08;82.65;;;;;;;5.40;60.55;99308.40;1736874;82;25408;-62
2021/12/21 11:28:23;;;;;;;57.45;26.17;;;;;;;5.64;60.27;99308.80;1737020;82;25586;-62
2021/12/21 11:30:50;;;;;;;;;;;;;;;5.97;60.47;99307.84;1739289;82;25707;-61
2021/12/21 11:33:18;;;;;;;33.05;17.60;;;;;;;6.27;60.06;99314.48;1743390;82;25637;-62
2021/12/21 11:38:32;;;;;;;31.68;19.25;;;;;;;6.20;59.24;99315.28;1744944;82;25475;-63
2021/12/21 11:41:00;;;;;;;42.40;25.43;;;;;;;6.34;58.41;99318.31;1744949;82;27423;-62
2021/12/21 11:43:32;;;;;;;56.73;29.20;;;;;;;6.32;58.64;99315.03;1745011;82;25760;-62
2021/12/21 11:46:15;;;;;;;42.70;23.02;;;;;;;5.65;48.79;99312.34;1744937;82;25483;-62
2021/12/21 11:48:53;;;;;;;26.42;14.98;;;;;;;5.53;57.31;99314.72;1745207;81;25702;-62
2021/12/21 11:51:27;;;;;;;31.90;20.50;;;;;;;5.69;55.59;99319.41;1745280;81;25689;-62
2021/12/21 11:53:56;;;;;;;12.80;7.53;;;;;;;5.67;55.38;99312.08;1745188;81;28410;-62
2021/12/21 11:56:26;;;;;;;12.55;7.10;;;;;;;5.57;54.90;99315.02;1745276;81;25620;-62
2021/12/21 11:58:57;;;;;;;11.38;6.15;;;;;;;5.37;55.40;99308.39;1745385;82;25613;-62
2021/12/21 12:01:28;;;;;;;12.58;8.93;;;;;;;5.15;57.31;99303.08;1745292;81;26720;-62
2021/12/21 12:04:09;;;;;;;14.58;10.03;;;;;;;5.14;56.33;99305.52;1715912;82;25601;-63
2021/12/21 12:06:54;;;;;;;11.18;7.70;;;;;;;4.93;53.89;99302.67;1745300;81;28212;-63
2021/12/21 12:09:34;;;;;;;9.78;6.40;;;;;;;4.60;56.66;99301.31;1745079;81;25617;-63
2021/12/21 12:12:11;;;;;;;9.85;6.85;;;;;;;4.42;55.91;99293.02;1745127;82;25717;-63
2021/12/21 12:14:41;;;;;;;9.43;7.00;;;;;;;4.26;54.44;99305.06;1745209;82;26633;-63
2021/12/21 12:17:22;;;;;;;10.88;7.70;;;;;;;4.09;55.95;99305.16;1745175;81;25481;-63
2021/12/21 12:19:55;;;;;;;11.18;7.67;;;;;;;4.04;54.94;99298.86;1744986;81;25959;-63
2021/12/21 12:22:46;;;;;;;12.63;8.00;;;;;;;4.11;56.98;99303.02;1743026;82;25927;-62
2021/12/21 12:25:22;;;;;;;;;;;;;;;4.26;56.62;99298.84;1747534;82;25665;-62
2021/12/21 12:27:52;;;;;;;14.05;8.70;;;;;;;4.14;56.63;99290.30;1745243;82;25585;-62
2021/12/21 12:30:26;;;;;;;9.98;7.75;;;;;;;4.12;57.14;99301.93;1744316;82;25597;-62
2021/12/21 12:33:05;;;;;;;11.90;8.53;;;;;;;4.09;56.85;99307.86;1744931;82;27679;-63
2021/12/21 12:35:35;;;;;;;12.35;9.25;;;;;;;3.78;55.68;99303.46;1744719;82;25786;-62
2021/12/21 12:38:07;;;;;;;24.60;12.82;;;;;;;3.49;56.45;99309.06;1742808;82;25872;-62